Time;durP1;ratioP1;P1;durP2;ratioP2;P2;SDS_P1;SDS_P2;PMS_P1;PMS_P2;Temp;Humidity;BMP_temperature;BMP_pressure;BME280_temperature;BME280_humidity;BME280_pressure;Samples;Min_cycle;Max_cycle;Signal;HPM_P1;HPM_P2
2022/09/23 00:00:38;;;;;;;;;;;;;;;;;;4973490;28;19925;-73
2022/09/23 00:03:04;;;;;;;;;;;;;;;;;;4958053;28;19918;-74
2022/09/23 00:05:29;;;;;;;;;;;;;;;;;;4975522;28;19911;-74
2022/09/23 00:07:55;;;;;;;;;;;;;;;;;;4974449;28;20281;-74
2022/09/23 00:10:20;;;;;;;;;;;;;;;;;;4974138;28;20397;-74
2022/09/23 00:12:46;;;;;;;;;;;;;;;;;;4974335;28;19922;-74
2022/09/23 00:15:11;;;;;;;;;;;;;;;;;;4974928;28;20326;-74
2022/09/23 00:17:37;;;;;;;;;;;;;;;;;;4959366;28;19914;-74
2022/09/23 00:20:03;;;;;;;;;;;;;;;;;;4975126;28;19914;-74
2022/09/23 00:22:28;;;;;;;;;;;;;;;;;;4958471;28;19925;-75
2022/09/23 00:24:53;;;;;;;;;;;;;;;;;;4974433;28;19969;-74
2022/09/23 00:27:20;;;;;;;;;;;;;;;;;;4974732;28;20293;-74
2022/09/23 00:29:45;;;;;;;;;;;;;;;;;;4975290;28;19914;-75
2022/09/23 00:32:11;;;;;;;;;;;;;;;;;;4957199;28;19921;-74
2022/09/23 00:34:36;;;;;;;;;;;;;;;;;;4957643;28;20370;-76
2022/09/23 00:37:02;;;;;;;;;;;;;;;;;;4973700;28;19914;-75
2022/09/23 00:39:27;;;;;;;;;;;;;;;;;;4974941;28;19914;-76
2022/09/23 00:41:53;;;;;;;;;;;;;;;;;;4973462;28;20009;-74
2022/09/23 00:44:18;;;;;;;;;;;;;;;;;;4973499;28;19960;-76
2022/09/23 00:46:44;;;;;;;;;;;;;;;;;;4974717;28;19968;-74
2022/09/23 00:49:09;;;;;;;;;;;;;;;;;;4974658;28;19922;-75
2022/09/23 00:51:35;;;;;;;;;;;;;;;;;;4956505;28;19973;-74
2022/09/23 00:54:00;;;;;;;;;;;;;;;;;;4973559;28;19915;-74
2022/09/23 00:56:25;;;;;;;;;;;;;;;;;;4957338;28;20297;-75
2022/09/23 00:58:51;;;;;;;;;;;;;;;;;;4957400;28;19921;-74
2022/09/23 01:01:16;;;;;;;;;;;;;;;;;;4973141;28;20404;-75
2022/09/23 01:03:42;;;;;;;;;;;;;;;;;;4974290;28;19918;-75
2022/09/23 01:06:07;;;;;;;;;;;;;;;;;;4974456;28;19937;-76
2022/09/23 01:08:33;;;;;;;;;;;;;;;;;;4967470;28;20325;-75
2022/09/23 01:10:58;;;;;;;;;;;;;;;;;;4969629;28;19914;-75
2022/09/23 01:13:24;;;;;;;;;;;;;;;;;;4953774;28;19915;-76
2022/09/23 01:15:49;;;;;;;;;;;;;;;;;;4969737;28;19910;-75
2022/09/23 01:18:14;;;;;;;;;;;;;;;;;;4969835;28;20342;-75
2022/09/23 01:20:43;;;;;;;;;;;;;;;;;;4953746;28;19919;-74
2022/09/23 01:23:09;;;;;;;;;;;;;;;;;;4969594;28;19915;-75
2022/09/23 01:25:34;;;;;;;;;;;;;;;;;;4972794;28;19920;-74
2022/09/23 01:28:00;;;;;;;;;;;;;;;;;;4972920;28;20004;-75
2022/09/23 01:30:25;;;;;;;;;;;;;;;;;;4972592;28;20309;-76
2022/09/23 01:32:51;;;;;;;;;;;;;;;;;;4956772;28;19960;-74
2022/09/23 01:35:16;;;;;;;;;;;;;;;;;;4972904;28;20361;-75
2022/09/23 01:37:43;;;;;;;;;;;;;;;;;;4973451;28;19921;-75
2022/09/23 01:40:09;;;;;;;;;;;;;;;;;;4972515;28;19914;-74
2022/09/23 01:42:35;;;;;;;;;;;;;;;;;;4977737;23;19930;-79
2022/09/23 01:45:01;;;;;;;;;;;;;;;;;;4973966;28;19921;-79
2022/09/23 01:47:28;;;;;;;;;;;;;;;;;;4989153;28;20400;-77
2022/09/23 01:49:53;;;;;;;;;;;;;;;;;;4989209;28;19914;-79
2022/09/23 01:52:18;;;;;;;;;;;;;;;;;;4972681;28;20451;-80
2022/09/23 01:54:45;;;;;;;;;;;;;;;;;;4989150;28;19921;-78
2022/09/23 01:57:10;;;;;;;;;;;;;;;;;;4974167;28;19914;-80
2022/09/23 01:59:35;;;;;;;;;;;;;;;;;;4973586;28;19920;-82
2022/09/23 02:02:01;;;;;;;;;;;;;;;;;;4974918;28;19942;-80
2022/09/23 02:04:27;;;;;;;;;;;;;;;;;;4975378;28;19914;-79
2022/09/23 02:06:52;;;;;;;;;;;;;;;;;;4976192;28;19938;-80
2022/09/23 02:09:17;;;;;;;;;;;;;;;;;;4976914;28;19918;-78
2022/09/23 02:11:44;;;;;;;;;;;;;;;;;;4976543;28;19914;-78
2022/09/23 02:14:10;;;;;;;;;;;;;;;;;;4978491;28;19921;-81
2022/09/23 02:16:38;;;;;;;;;;;;;;;;;;4984679;28;19914;-79
2022/09/23 02:19:03;;;;;;;;;;;;;;;;;;5002901;28;19922;-79
2022/09/23 02:21:28;;;;;;;;;;;;;;;;;;4987296;28;20365;-80
2022/09/23 02:23:54;;;;;;;;;;;;;;;;;;4985035;28;19939;-79
2022/09/23 02:26:19;;;;;;;;;;;;;;;;;;4986004;28;19915;-80
2022/09/23 02:28:44;;;;;;;;;;;;;;;;;;4987281;28;19937;-80
2022/09/23 02:31:10;;;;;;;;;;;;;;;;;;4966283;28;20271;-79
2022/09/23 02:33:36;;;;;;;;;;;;;;;;;;4961630;29;19915;-78
2022/09/23 02:36:01;;;;;;;;;;;;;;;;;;4960683;28;20005;-79
2022/09/23 02:38:26;;;;;;;;;;;;;;;;;;4959696;29;19914;-79
2022/09/23 02:40:52;;;;;;;;;;;;;;;;;;4958866;28;19925;-79
2022/09/23 02:43:21;;;;;;;;;;;;;;;;;;4953709;28;19918;-78
2022/09/23 02:45:46;;;;;;;;;;;;;;;;;;4962145;28;19964;-77
2022/09/23 02:48:11;;;;;;;;;;;;;;;;;;4973947;28;20387;-78
2022/09/23 02:50:37;;;;;;;;;;;;;;;;;;4977361;28;19921;-80
2022/09/23 02:53:03;;;;;;;;;;;;;;;;;;4975835;28;20441;-79
2022/09/23 02:55:32;;;;;;;;;;;;;;;;;;4977660;28;19918;-80
2022/09/23 02:57:57;;;;;;;;;;;;;;;;;;4976141;28;19910;-80
2022/09/23 03:00:23;;;;;;;;;;;;;;;;;;4975483;28;20404;-79
2022/09/23 03:02:50;;;;;;;;;;;;;;;;;;4957853;28;19921;-79
2022/09/23 03:05:16;;;;;;;;;;;;;;;;;;4956741;28;19966;-78
2022/09/23 03:07:42;;;;;;;;;;;;;;;;;;4958159;28;19914;-81
2022/09/23 03:10:08;;;;;;;;;;;;;;;;;;4956805;28;20404;-80
2022/09/23 03:12:34;;;;;;;;;;;;;;;;;;4940567;29;19966;-79
2022/09/23 03:15:00;;;;;;;;;;;;;;;;;;4957599;29;19953;-78
2022/09/23 03:17:25;;;;;;;;;;;;;;;;;;4960783;28;19914;-79
2022/09/23 03:19:50;;;;;;;;;;;;;;;;;;4975874;28;19914;-81
2022/09/23 03:22:17;;;;;;;;;;;;;;;;;;4991646;28;19925;-79
2022/09/23 03:24:43;;;;;;;;;;;;;;;;;;4976666;28;19937;-78
2022/09/23 03:27:12;;;;;;;;;;;;;;;;;;4991680;28;20416;-78
2022/09/23 03:29:38;;;;;;;;;;;;;;;;;;4976628;28;19964;-79
2022/09/23 03:32:06;;;;;;;;;;;;;;;;;;4976314;28;20381;-78
2022/09/23 03:34:32;;;;;;;;;;;;;;;;;;4990521;28;19922;-82
2022/09/23 03:37:00;;;;;;;;;;;;;;;;;;4991459;28;19914;-79
2022/09/23 03:39:25;;;;;;;;;;;;;;;;;;4976484;28;19915;-78
2022/09/23 03:41:51;;;;;;;;;;;;;;;;;;4976785;28;19918;-80
2022/09/23 03:44:16;;;;;;;;;;;;;;;;;;4976727;28;20013;-79
2022/09/23 03:46:48;;;;;;;;;;;;;;;;;;4974908;28;19985;-80
2022/09/23 03:49:14;;;;;;;;;;;;;;;;;;4976180;28;20010;-77
2022/09/23 03:51:39;;;;;;;;;;;;;;;;;;4971246;28;20412;-77
2022/09/23 03:54:04;;;;;;;;;;;;;;;;;;4956612;28;20286;-80
2022/09/23 03:56:30;;;;;;;;;;;;;;;;;;4956949;28;20369;-79
2022/09/23 03:58:55;;;;;;;;;;;;;;;;;;4956928;28;20157;-78
2022/09/23 04:01:20;;;;;;;;;;;;;;;;;;4956496;28;19918;-78
2022/09/23 04:03:46;;;;;;;;;;;;;;;;;;4956888;28;19973;-78
2022/09/23 04:06:11;;;;;;;;;;;;;;;;;;4956707;28;19937;-79
2022/09/23 04:08:36;;;;;;;;;;;;;;;;;;4971389;28;19914;-78
2022/09/23 04:11:03;;;;;;;;;;;;;;;;;;4976064;28;19957;-78
2022/09/23 04:13:28;;;;;;;;;;;;;;;;;;4975841;28;19969;-81
2022/09/23 04:15:53;;;;;;;;;;;;;;;;;;4975933;28;19914;-79
2022/09/23 04:18:20;;;;;;;;;;;;;;;;;;4975985;28;19961;-78
2022/09/23 04:20:45;;;;;;;;;;;;;;;;;;4990734;28;19915;-79
2022/09/23 04:23:10;;;;;;;;;;;;;;;;;;4990511;28;19914;-78
2022/09/23 04:25:35;;;;;;;;;;;;;;;;;;4974863;28;20325;-79
2022/09/23 04:28:01;;;;;;;;;;;;;;;;;;4975723;28;20000;-80
2022/09/23 04:30:26;;;;;;;;;;;;;;;;;;4975551;28;19914;-80
2022/09/23 04:32:52;;;;;;;;;;;;;;;;;;4990707;28;20000;-79
2022/09/23 04:35:17;;;;;;;;;;;;;;;;;;4975248;28;20316;-78
2022/09/23 04:37:43;;;;;;;;;;;;;;;;;;4975758;28;19914;-80
2022/09/23 04:40:08;;;;;;;;;;;;;;;;;;4975629;28;20077;-79
2022/09/23 04:42:33;;;;;;;;;;;;;;;;;;4974708;28;19925;-80
2022/09/23 04:44:59;;;;;;;;;;;;;;;;;;4991629;28;19915;-78
2022/09/23 04:47:24;;;;;;;;;;;;;;;;;;4976261;28;19914;-78
2022/09/23 04:49:50;;;;;;;;;;;;;;;;;;4974961;28;19992;-79
2022/09/23 04:52:15;;;;;;;;;;;;;;;;;;4976123;28;19957;-78
2022/09/23 04:54:40;;;;;;;;;;;;;;;;;;4990316;28;20296;-78
2022/09/23 04:57:06;;;;;;;;;;;;;;;;;;4974601;28;19917;-78
2022/09/23 04:59:31;;;;;;;;;;;;;;;;;;4975305;28;19969;-79
2022/09/23 05:01:57;;;;;;;;;;;;;;;;;;4975541;28;19922;-80
2022/09/23 05:04:22;;;;;;;;;;;;;;;;;;4974151;28;19914;-79
2022/09/23 05:06:48;;;;;;;;;;;;;;;;;;4975377;28;20137;-80
2022/09/23 05:09:13;;;;;;;;;;;;;;;;;;4975059;28;20389;-79
2022/09/23 05:11:39;;;;;;;;;;;;;;;;;;4973122;28;20297;-79
2022/09/23 05:14:04;;;;;;;;;;;;;;;;;;4989555;28;19921;-79
2022/09/23 05:16:30;;;;;;;;;;;;;;;;;;4973916;28;19914;-79
2022/09/23 05:18:56;;;;;;;;;;;;;;;;;;4976582;28;19914;-80
2022/09/23 05:21:21;;;;;;;;;;;;;;;;;;4991013;28;20001;-79
2022/09/23 05:23:47;;;;;;;;;;;;;;;;;;4974946;28;19952;-78
2022/09/23 05:26:12;;;;;;;;;;;;;;;;;;4974184;28;19914;-78
2022/09/23 05:28:41;;;;;;;;;;;;;;;;;;4974846;28;20301;-79
2022/09/23 05:31:06;;;;;;;;;;;;;;;;;;4988279;28;19972;-78
2022/09/23 05:33:31;;;;;;;;;;;;;;;;;;4988540;28;20369;-80
2022/09/23 05:35:57;;;;;;;;;;;;;;;;;;4973373;28;19914;-78
2022/09/23 05:38:22;;;;;;;;;;;;;;;;;;4988350;28;19914;-77
2022/09/23 05:40:48;;;;;;;;;;;;;;;;;;4972128;28;19922;-78
2022/09/23 05:43:15;;;;;;;;;;;;;;;;;;4972772;28;20168;-78
2022/09/23 05:45:40;;;;;;;;;;;;;;;;;;4987507;28;20407;-78
2022/09/23 05:48:06;;;;;;;;;;;;;;;;;;4988489;28;19929;-78
2022/09/23 05:50:31;;;;;;;;;;;;;;;;;;4988312;28;19977;-76
2022/09/23 05:52:56;;;;;;;;;;;;;;;;;;4975853;28;19914;-81
2022/09/23 05:55:22;;;;;;;;;;;;;;;;;;4976128;28;19949;-78
2022/09/23 05:57:47;;;;;;;;;;;;;;;;;;4973846;28;19957;-79
2022/09/23 06:00:13;;;;;;;;;;;;;;;;;;4972755;28;19922;-78
2022/09/23 06:02:38;;;;;;;;;;;;;;;;;;4973308;28;20435;-79
2022/09/23 06:05:04;;;;;;;;;;;;;;;;;;4978617;28;19914;-78
2022/09/23 06:07:30;;;;;;;;;;;;;;;;;;4975397;28;20024;-81
2022/09/23 06:09:55;;;;;;;;;;;;;;;;;;4973231;28;19914;-79
2022/09/23 06:12:21;;;;;;;;;;;;;;;;;;4973357;28;20356;-80
2022/09/23 06:14:47;;;;;;;;;;;;;;;;;;4972698;28;19914;-79
2022/09/23 06:17:12;;;;;;;;;;;;;;;;;;4976433;28;19922;-78
2022/09/23 06:19:38;;;;;;;;;;;;;;;;;;4954644;28;20294;-78
2022/09/23 06:22:03;;;;;;;;;;;;;;;;;;4954133;28;19968;-79
2022/09/23 06:24:28;;;;;;;;;;;;;;;;;;4958169;28;20378;-79
2022/09/23 06:26:54;;;;;;;;;;;;;;;;;;4958041;29;20401;-77
2022/09/23 06:29:23;;;;;;;;;;;;;;;;;;4956841;28;19969;-79
2022/09/23 06:31:48;;;;;;;;;;;;;;;;;;4962975;28;20440;-80
2022/09/23 06:34:13;;;;;;;;;;;;;;;;;;4976664;28;20001;-78
2022/09/23 06:36:39;;;;;;;;;;;;;;;;;;4977943;28;19910;-78
2022/09/23 06:39:04;;;;;;;;;;;;;;;;;;4977619;28;19921;-79
2022/09/23 06:41:30;;;;;;;;;;;;;;;;;;4959868;28;20381;-80
2022/09/23 06:43:59;;;;;;;;;;;;;;;;;;4960317;28;20399;-77
2022/09/23 06:46:24;;;;;;;;;;;;;;;;;;4976361;28;19914;-80
2022/09/23 06:48:50;;;;;;;;;;;;;;;;;;4992668;28;19914;-78
2022/09/23 06:51:18;;;;;;;;;;;;;;;;;;4992223;28;19961;-79
2022/09/23 06:53:44;;;;;;;;;;;;;;;;;;4976948;28;19915;-79
2022/09/23 06:56:10;;;;;;;;;;;;;;;;;;4975606;28;20013;-78
2022/09/23 06:58:36;;;;;;;;;;;;;;;;;;4976642;28;19914;-76
2022/09/23 07:01:02;;;;;;;;;;;;;;;;;;4976250;28;20391;-77
2022/09/23 07:03:27;;;;;;;;;;;;;;;;;;4976312;28;19914;-77
2022/09/23 07:05:52;;;;;;;;;;;;;;;;;;4975540;28;20404;-76
2022/09/23 07:08:18;;;;;;;;;;;;;;;;;;4976141;28;19943;-76
2022/09/23 07:10:43;;;;;;;;;;;;;;;;;;4976160;28;19921;-75
2022/09/23 07:13:09;;;;;;;;;;;;;;;;;;4974600;28;19914;-76
2022/09/23 07:15:35;;;;;;;;;;;;;;;;;;4973646;28;19929;-77
2022/09/23 07:18:00;;;;;;;;;;;;;;;;;;4974229;28;19914;-76
2022/09/23 07:20:26;;;;;;;;;;;;;;;;;;4974646;28;20294;-76
2022/09/23 07:22:51;;;;;;;;;;;;;;;;;;4975765;28;20109;-75
2022/09/23 07:25:16;;;;;;;;;;;;;;;;;;4975952;28;20004;-75
2022/09/23 07:27:42;;;;;;;;;;;;;;;;;;4976118;28;20296;-75
2022/09/23 07:30:07;;;;;;;;;;;;;;;;;;4974887;28;19953;-77
2022/09/23 07:32:32;;;;;;;;;;;;;;;;;;4975618;28;19914;-76
2022/09/23 07:34:58;;;;;;;;;;;;;;;;;;4973706;28;20412;-76
2022/09/23 07:37:23;;;;;;;;;;;;;;;;;;4975162;28;19918;-76
2022/09/23 07:39:49;;;;;;;;;;;;;;;;;;4974457;28;19914;-76
2022/09/23 07:42:15;;;;;;;;;;;;;;;;;;4975804;28;19922;-75
2022/09/23 07:44:44;;;;;;;;;;;;;;;;;;4975520;28;19972;-75
2022/09/23 07:47:09;;;;;;;;;;;;;;;;;;4975748;28;19918;-77
2022/09/23 07:49:35;;;;;;;;;;;;;;;;;;4990256;28;19921;-76
2022/09/23 07:52:01;;;;;;;;;;;;;;;;;;4975624;28;20267;-76
2022/09/23 07:54:28;;;;;;;;;;;;;;;;;;4989670;28;19918;-76
2022/09/23 07:56:53;;;;;;;;;;;;;;;;;;4990543;28;19922;-75
2022/09/23 07:59:19;;;;;;;;;;;;;;;;;;4975491;28;19918;-75
2022/09/23 08:01:45;;;;;;;;;;;;;;;;;;4974551;28;19965;-76
2022/09/23 08:04:10;;;;;;;;;;;;;;;;;;4990078;28;19914;-77
2022/09/23 08:06:35;;;;;;;;;;;;;;;;;;4984104;28;19911;-76
2022/09/23 08:09:01;;;;;;;;;;;;;;;;;;4971033;28;19918;-77
2022/09/23 08:11:26;;;;;;;;;;;;;;;;;;4974877;28;19914;-77
2022/09/23 08:13:52;;;;;;;;;;;;;;;;;;4975017;28;20381;-75
2022/09/23 08:16:17;;;;;;;;;;;;;;;;;;4975111;28;20005;-77
2022/09/23 08:18:43;;;;;;;;;;;;;;;;;;4974950;28;19940;-77
2022/09/23 08:21:09;;;;;;;;;;;;;;;;;;4974979;28;19941;-76
2022/09/23 08:23:34;;;;;;;;;;;;;;;;;;4974073;28;19969;-77
2022/09/23 08:25:59;;;;;;;;;;;;;;;;;;4973526;28;20009;-76
2022/09/23 08:28:25;;;;;;;;;;;;;;;;;;4973995;28;19965;-77
2022/09/23 08:30:50;;;;;;;;;;;;;;;;;;4973473;28;19928;-77
2022/09/23 08:33:15;;;;;;;;;;;;;;;;;;4982960;28;20408;-77
2022/09/23 08:35:41;;;;;;;;;;;;;;;;;;4973368;28;20373;-75
2022/09/23 08:38:06;;;;;;;;;;;;;;;;;;4985135;28;19922;-77
2022/09/23 08:40:32;;;;;;;;;;;;;;;;;;4972350;28;19917;-76
2022/09/23 08:42:57;;;;;;;;;;;;;;;;;;4974079;28;19918;-75
2022/09/23 08:45:22;;;;;;;;;;;;;;;;;;4974545;28;19962;-77
2022/09/23 08:47:48;;;;;;;;;;;;;;;;;;4974719;28;19965;-77
2022/09/23 08:50:13;;;;;;;;;;;;;;;;;;4974948;28;20404;-84
2022/09/23 08:52:38;;;;;;;;;;;;;;;;;;4991010;28;19914;-77
2022/09/23 08:55:04;;;;;;;;;;;;;;;;;;4974460;28;20021;-77
2022/09/23 08:57:30;;;;;;;;;;;;;;;;;;4973187;28;19914;-78
2022/09/23 08:59:55;;;;;;;;;;;;;;;;;;4963102;28;20366;-76
2022/09/23 09:02:21;;;;;;;;;;;;;;;;;;4972762;28;19918;-78
2022/09/23 09:04:46;;;;;;;;;;;;;;;;;;4973929;28;20282;-77
2022/09/23 09:07:12;;;;;;;;;;;;;;;;;;4972922;28;19922;-76
2022/09/23 09:09:38;;;;;;;;;;;;;;;;;;4973957;28;19914;-77
2022/09/23 09:12:03;;;;;;;;;;;;;;;;;;4972676;28;19914;-77
2022/09/23 09:14:28;;;;;;;;;;;;;;;;;;4973503;28;19918;-77
2022/09/23 09:16:54;;;;;;;;;;;;;;;;;;4971295;28;19992;-76
2022/09/23 09:19:19;;;;;;;;;;;;;;;;;;4965624;28;19918;-76
2022/09/23 09:21:46;;;;;;;;;;;;;;;;;;4968112;28;20283;-76
2022/09/23 09:24:12;;;;;;;;;;;;;;;;;;4971767;28;19914;-76
2022/09/23 09:26:37;;;;;;;;;;;;;;;;;;4972139;28;19961;-75
2022/09/23 09:29:02;;;;;;;;;;;;;;;;;;4973529;28;19914;-75
2022/09/23 09:31:28;;;;;;;;;;;;;;;;;;4973173;28;19918;-75
2022/09/23 09:33:57;;;;;;;;;;;;;;;;;;4971608;28;20364;-74
2022/09/23 09:36:22;;;;;;;;;;;;;;;;;;4973371;28;19914;-73
2022/09/23 09:38:49;;;;;;;;;;;;;;;;;;4973252;28;19988;-75
2022/09/23 09:41:16;;;;;;;;;;;;;;;;;;4971741;28;19918;-75
2022/09/23 09:43:41;;;;;;;;;;;;;;;;;;4973176;28;19922;-75
2022/09/23 09:46:07;;;;;;;;;;;;;;;;;;4973149;28;19937;-76
2022/09/23 09:48:33;;;;;;;;;;;;;;;;;;4972965;28;19914;-75
2022/09/23 09:50:59;;;;;;;;;;;;;;;;;;4972485;28;20039;-75
2022/09/23 09:53:25;;;;;;;;;;;;;;;;;;4973335;28;19945;-75
2022/09/23 09:55:50;;;;;;;;;;;;;;;;;;4973376;28;20338;-77
2022/09/23 09:58:15;;;;;;;;;;;;;;;;;;4972725;28;20297;-76
2022/09/23 10:00:42;;;;;;;;;;;;;;;;;;4973266;28;20321;-77
2022/09/23 10:03:08;;;;;;;;;;;;;;;;;;4973645;28;19914;-76
2022/09/23 10:05:34;;;;;;;;;;;;;;;;;;4972105;28;20440;-78
2022/09/23 10:07:59;;;;;;;;;;;;;;;;;;4955473;28;20091;-76
2022/09/23 10:10:24;;;;;;;;;;;;;;;;;;4972143;28;19937;-78
2022/09/23 10:12:51;;;;;;;;;;;;;;;;;;4973189;28;19914;-75
2022/09/23 10:15:16;;;;;;;;;;;;;;;;;;4972359;28;20193;-77
2022/09/23 10:17:42;;;;;;;;;;;;;;;;;;4956231;28;20389;-75
2022/09/23 10:20:08;;;;;;;;;;;;;;;;;;4972065;28;19941;-76
2022/09/23 10:22:33;;;;;;;;;;;;;;;;;;4969927;28;19941;-76
2022/09/23 10:24:59;;;;;;;;;;;;;;;;;;4971281;28;20235;-76
2022/09/23 10:27:25;;;;;;;;;;;;;;;;;;4972561;28;19998;-77
2022/09/23 10:29:50;;;;;;;;;;;;;;;;;;4971142;28;20287;-76
2022/09/23 10:32:16;;;;;;;;;;;;;;;;;;4955139;28;19954;-76
2022/09/23 10:34:41;;;;;;;;;;;;;;;;;;4971415;28;19924;-75
2022/09/23 10:37:06;;;;;;;;;;;;;;;;;;4968853;28;19965;-77
2022/09/23 10:47:44;;;;;;;;;;;;;;;;;;4970495;28;19918;-77
2022/09/23 10:50:10;;;;;;;;;;;;;;;;;;4966896;28;19970;-76
2022/09/23 10:52:35;;;;;;;;;;;;;;;;;;4972216;28;20293;-76
2022/09/23 10:55:00;;;;;;;;;;;;;;;;;;4970534;28;19922;-77
2022/09/23 10:57:41;;;;;;;;;;;;;;;;;;4955688;28;20255;-76
2022/09/23 11:00:07;;;;;;;;;;;;;;;;;;4972253;28;19969;-79
2022/09/23 11:02:33;;;;;;;;;;;;;;;;;;4970908;28;19917;-79
2022/09/23 11:04:58;;;;;;;;;;;;;;;;;;4972492;28;20312;-80
2022/09/23 11:07:23;;;;;;;;;;;;;;;;;;4972825;28;19984;-81
2022/09/23 11:09:48;;;;;;;;;;;;;;;;;;4972422;28;20008;-78
2022/09/23 11:12:15;;;;;;;;;;;;;;;;;;4990804;28;19914;-78
2022/09/23 11:14:40;;;;;;;;;;;;;;;;;;4975632;28;19921;-78
2022/09/23 11:17:06;;;;;;;;;;;;;;;;;;4974180;28;19914;-76
2022/09/23 11:19:32;;;;;;;;;;;;;;;;;;4974057;28;20269;-78
2022/09/23 11:21:58;;;;;;;;;;;;;;;;;;4974024;28;20397;-77
2022/09/23 11:24:23;;;;;;;;;;;;;;;;;;4975117;28;19920;-77
2022/09/23 11:26:52;;;;;;;;;;;;;;;;;;4973520;28;20342;-78
2022/09/23 11:29:17;;;;;;;;;;;;;;;;;;4975502;28;19977;-77
2022/09/23 11:31:44;;;;;;;;;;;;;;;;;;4974224;28;20270;-79
2022/09/23 11:34:09;;;;;;;;;;;;;;;;;;4957660;28;20005;-77
2022/09/23 11:36:35;;;;;;;;;;;;;;;;;;4957739;28;20362;-78
2022/09/23 11:39:00;;;;;;;;;;;;;;;;;;4974103;28;19920;-78
2022/09/23 11:41:25;;;;;;;;;;;;;;;;;;4974982;28;20012;-78
2022/09/23 11:43:51;;;;;;;;;;;;;;;;;;4974149;28;20102;-78
2022/09/23 11:46:19;;;;;;;;;;;;;;;;;;4974822;28;19953;-78
2022/09/23 11:48:45;;;;;;;;;;;;;;;;;;4974776;28;19954;-78
2022/09/23 11:51:10;;;;;;;;;;;;;;;;;;4974792;28;19961;-77
2022/09/23 11:53:35;;;;;;;;;;;;;;;;;;4973221;28;19918;-78
2022/09/23 11:56:02;;;;;;;;;;;;;;;;;;4974856;28;19915;-78
2022/09/23 11:58:28;;;;;;;;;;;;;;;;;;4959257;28;19923;-78
2022/09/23 12:00:53;;;;;;;;;;;;;;;;;;4974636;28;19914;-78
2022/09/23 12:03:22;;;;;;;;;;;;;;;;;;4973634;28;19918;-79
2022/09/23 12:05:47;;;;;;;;;;;;;;;;;;4970871;28;19922;-77
2022/09/23 12:08:13;;;;;;;;;;;;;;;;;;4972703;28;20280;-77
2022/09/23 12:10:38;;;;;;;;;;;;;;;;;;4967908;28;20369;-75
2022/09/23 12:13:04;;;;;;;;;;;;;;;;;;4969417;28;20338;-77
2022/09/23 12:15:29;;;;;;;;;;;;;;;;;;4971333;28;19914;-77
2022/09/23 12:17:55;;;;;;;;;;;;;;;;;;4974497;28;20338;-78
2022/09/23 12:20:20;;;;;;;;;;;;;;;;;;4974151;28;19918;-77
2022/09/23 12:22:46;;;;;;;;;;;;;;;;;;4974004;28;19984;-77
2022/09/23 12:25:12;;;;;;;;;;;;;;;;;;4974393;28;20001;-77
2022/09/23 12:27:37;;;;;;;;;;;;;;;;;;4973200;28;19914;-76
2022/09/23 12:30:03;;;;;;;;;;;;;;;;;;4974369;28;19914;-77
2022/09/23 12:32:28;;;;;;;;;;;;;;;;;;4974010;28;20012;-77
2022/09/23 12:34:54;;;;;;;;;;;;;;;;;;4972826;28;19956;-77
2022/09/23 12:37:19;;;;;;;;;;;;;;;;;;4973722;28;19914;-76
2022/09/23 12:39:44;;;;;;;;;;;;;;;;;;4967257;28;20377;-77
2022/09/23 12:42:10;;;;;;;;;;;;;;;;;;4973939;28;20344;-77
2022/09/23 12:44:36;;;;;;;;;;;;;;;;;;4972821;28;19915;-76
2022/09/23 12:47:01;;;;;;;;;;;;;;;;;;4972757;28;19951;-77
2022/09/23 12:49:27;;;;;;;;;;;;;;;;;;4956265;28;20413;-77
2022/09/23 12:51:52;;;;;;;;;;;;;;;;;;4973968;28;19914;-77
2022/09/23 12:54:18;;;;;;;;;;;;;;;;;;4972264;28;20029;-77
2022/09/23 12:56:43;;;;;;;;;;;;;;;;;;4974040;28;19961;-75
2022/09/23 12:59:10;;;;;;;;;;;;;;;;;;4973682;28;19918;-77
2022/09/23 13:01:35;;;;;;;;;;;;;;;;;;4972631;28;19918;-78
2022/09/23 13:06:45;;;;;;;;;;;;;;;;;;4960155;28;19914;-77
2022/09/23 13:09:10;;;;;;;;;;;;;;;;;;4973592;28;19941;-77
2022/09/23 13:11:36;;;;;;;;;;;;;;;;;;4972988;28;20005;-78
2022/09/23 13:14:01;;;;;;;;;;;;;;;;;;4973520;28;20378;-77
2022/09/23 13:16:26;;;;;;;;;;;;;;;;;;4972160;28;19914;-77
2022/09/23 13:18:53;;;;;;;;;;;;;;;;;;4972054;28;19974;-78
2022/09/23 13:21:18;;;;;;;;;;;;;;;;;;4972136;28;20386;-77
2022/09/23 13:23:44;;;;;;;;;;;;;;;;;;4971904;28;19925;-77
2022/09/23 13:26:09;;;;;;;;;;;;;;;;;;4973259;28;19933;-77
2022/09/23 13:28:36;;;;;;;;;;;;;;;;;;4972270;28;20357;-76
2022/09/23 13:31:01;;;;;;;;;;;;;;;;;;4972877;28;19914;-78
2022/09/23 13:33:26;;;;;;;;;;;;;;;;;;4987113;28;19985;-77
2022/09/23 13:35:52;;;;;;;;;;;;;;;;;;4973269;28;19964;-78
2022/09/23 13:38:17;;;;;;;;;;;;;;;;;;4972539;28;20401;-78
2022/09/23 13:40:43;;;;;;;;;;;;;;;;;;4971530;28;19914;-77
2022/09/23 13:43:09;;;;;;;;;;;;;;;;;;4971045;28;19929;-76
2022/09/23 13:45:35;;;;;;;;;;;;;;;;;;4971847;28;19918;-77
2022/09/23 13:48:00;;;;;;;;;;;;;;;;;;4973034;28;19914;-78
2022/09/23 13:50:28;;;;;;;;;;;;;;;;;;4973119;28;19914;-79
2022/09/23 13:52:53;;;;;;;;;;;;;;;;;;4972957;28;19917;-78
2022/09/23 13:55:19;;;;;;;;;;;;;;;;;;4973272;28;20308;-79
2022/09/23 13:57:44;;;;;;;;;;;;;;;;;;4971814;28;19918;-78
2022/09/23 14:00:09;;;;;;;;;;;;;;;;;;4971238;28;19914;-76
2022/09/23 14:02:35;;;;;;;;;;;;;;;;;;4971216;28;19965;-76
2022/09/23 14:05:00;;;;;;;;;;;;;;;;;;4973145;28;19921;-77
2022/09/23 14:07:26;;;;;;;;;;;;;;;;;;4973028;28;19914;-77
2022/09/23 14:09:51;;;;;;;;;;;;;;;;;;4973365;28;19937;-77
2022/09/23 14:12:21;;;;;;;;;;;;;;;;;;4972098;28;19914;-78
2022/09/23 14:14:46;;;;;;;;;;;;;;;;;;4973543;28;19949;-78
2022/09/23 14:17:11;;;;;;;;;;;;;;;;;;4973042;28;19946;-78
2022/09/23 14:19:37;;;;;;;;;;;;;;;;;;4972090;28;19921;-75
2022/09/23 14:22:03;;;;;;;;;;;;;;;;;;4971367;28;19961;-77
2022/09/23 14:24:28;;;;;;;;;;;;;;;;;;4973009;28;20411;-76
2022/09/23 14:26:53;;;;;;;;;;;;;;;;;;4973270;28;19921;-77
2022/09/23 14:29:19;;;;;;;;;;;;;;;;;;4971814;28;20326;-78
2022/09/23 14:31:55;;;;;;;;;;;;;;;;;;4972694;28;20008;-78
2022/09/23 14:34:20;;;;;;;;;;;;;;;;;;4974137;28;20443;-76
2022/09/23 14:39:33;;;;;;;;;;;;;;;;;;4979689;28;19922;-76
2022/09/23 14:41:58;;;;;;;;;;;;;;;;;;4967033;28;20393;-78
2022/09/23 14:44:24;;;;;;;;;;;;;;;;;;4988908;28;19964;-77
2022/09/23 14:46:49;;;;;;;;;;;;;;;;;;4975267;28;20432;-76
2022/09/23 14:49:15;;;;;;;;;;;;;;;;;;4975130;28;19910;-76
2022/09/23 14:51:40;;;;;;;;;;;;;;;;;;4975319;28;19925;-77
2022/09/23 14:54:06;;;;;;;;;;;;;;;;;;4976223;28;19985;-77
2022/09/23 14:56:32;;;;;;;;;;;;;;;;;;4975426;28;19964;-78
2022/09/23 14:58:58;;;;;;;;;;;;;;;;;;4976255;28;19918;-76
2022/09/23 15:01:23;;;;;;;;;;;;;;;;;;4975029;28;19925;-77
2022/09/23 15:03:48;;;;;;;;;;;;;;;;;;4974225;28;19930;-77
2022/09/23 15:06:14;;;;;;;;;;;;;;;;;;4976048;28;19921;-77
2022/09/23 15:08:41;;;;;;;;;;;;;;;;;;4976341;28;19921;-76
2022/09/23 15:11:06;;;;;;;;;;;;;;;;;;4973695;28;19965;-76
2022/09/23 15:13:31;;;;;;;;;;;;;;;;;;4972442;28;19921;-78
2022/09/23 15:15:57;;;;;;;;;;;;;;;;;;4974585;28;19922;-77
2022/09/23 15:18:23;;;;;;;;;;;;;;;;;;4975160;28;19933;-75
2022/09/23 15:20:48;;;;;;;;;;;;;;;;;;4974414;28;19918;-77
2022/09/23 15:23:14;;;;;;;;;;;;;;;;;;4974323;28;20025;-77
2022/09/23 15:25:39;;;;;;;;;;;;;;;;;;4975800;28;19914;-77
2022/09/23 15:28:04;;;;;;;;;;;;;;;;;;4974473;28;19918;-78
2022/09/23 15:30:30;;;;;;;;;;;;;;;;;;4975801;28;20334;-75
2022/09/23 15:32:56;;;;;;;;;;;;;;;;;;4982659;28;19994;-77
2022/09/23 15:35:22;;;;;;;;;;;;;;;;;;4974438;28;20271;-78
2022/09/23 15:37:47;;;;;;;;;;;;;;;;;;4974394;28;19972;-78
2022/09/23 15:40:13;;;;;;;;;;;;;;;;;;4974238;28;20325;-77
2022/09/23 15:42:39;;;;;;;;;;;;;;;;;;4973801;28;20358;-78
2022/09/23 15:45:04;;;;;;;;;;;;;;;;;;4960092;28;20366;-78
2022/09/23 15:47:30;;;;;;;;;;;;;;;;;;4974379;28;20049;-78
2022/09/23 15:49:56;;;;;;;;;;;;;;;;;;4957843;28;20293;-75
2022/09/23 15:52:22;;;;;;;;;;;;;;;;;;4974940;28;19933;-77
2022/09/23 15:54:47;;;;;;;;;;;;;;;;;;4973916;28;19914;-77
2022/09/23 15:57:13;;;;;;;;;;;;;;;;;;4972924;28;20005;-77
2022/09/23 15:59:38;;;;;;;;;;;;;;;;;;4974258;28;19976;-76
2022/09/23 16:02:04;;;;;;;;;;;;;;;;;;4973947;28;19941;-77
2022/09/23 16:04:30;;;;;;;;;;;;;;;;;;4975029;28;19914;-78
2022/09/23 16:06:57;;;;;;;;;;;;;;;;;;4957566;28;19918;-77
2022/09/23 16:09:22;;;;;;;;;;;;;;;;;;4957453;28;20293;-79
2022/09/23 16:11:50;;;;;;;;;;;;;;;;;;4957483;28;19914;-76
2022/09/23 16:14:15;;;;;;;;;;;;;;;;;;4975376;28;19914;-78
2022/09/23 16:16:42;;;;;;;;;;;;;;;;;;4974262;28;19925;-78
2022/09/23 16:19:08;;;;;;;;;;;;;;;;;;4973566;28;19922;-76
2022/09/23 16:21:33;;;;;;;;;;;;;;;;;;4974573;28;19940;-88
2022/09/23 16:23:59;;;;;;;;;;;;;;;;;;4960052;28;19993;-77
2022/09/23 16:26:25;;;;;;;;;;;;;;;;;;4974341;28;20378;-75
2022/09/23 16:28:50;;;;;;;;;;;;;;;;;;4973376;28;19933;-75
2022/09/23 16:31:16;;;;;;;;;;;;;;;;;;4974524;28;19917;-76
2022/09/23 16:33:41;;;;;;;;;;;;;;;;;;4972941;28;20017;-76
2022/09/23 16:36:07;;;;;;;;;;;;;;;;;;4973372;28;19914;-77
2022/09/23 16:38:32;;;;;;;;;;;;;;;;;;4973143;28;19968;-76
2022/09/23 16:40:59;;;;;;;;;;;;;;;;;;4971581;28;19992;-76
2022/09/23 16:43:31;;;;;;;;;;;;;;;;;;4972805;28;20449;-77
2022/09/23 16:45:56;;;;;;;;;;;;;;;;;;4972769;28;19914;-78
2022/09/23 16:48:23;;;;;;;;;;;;;;;;;;4972778;28;20394;-79